Columbus Grove, OH (45830)

6:07 PM EST on March 04, 2015 (GMT -0500)
Bluffton | Change Station
CLOSE
Current Station
Personal Weather Station
Location: Bluffton, OH
Elevation: 847 ft
Nearby Weather Stations

Elev 847 ft 40.89 °N, 83.89 °W | Updated 2 seconds ago

Overcast
Overcast
28.9 °F
Feels Like 17 °F
N
16.0
Wind Variable Wind from NW
Gusts 18.0 mph

Today
High -- | Low -- °F
--% Chance of Precip.
Yesterday
High -- | Low -- °F
Precip. -- in
7:05 AM 6:30 PM
Waxing Gibbous, 99% visible
Pressure 30.05 in
Visibility 6.0 miles
Clouds Scattered Clouds 2000 ft
Mostly Cloudy 2600 ft
Overcast 8000 ft
Windchill 17 °F
Dew Point 23 °F
Humidity 77%
Rainfall 0.00 in
Snow Depth Not available.
UV 0.0 out of 12
Pollen .40 out of 12
Air Quality Not available.
Flu Activity Not available.
METAR KAOH 042153Z AUTO 31014G20KT 6SM HZ SCT020 BKN026 OVC080 00/M05 A3002 RMK AO2 PRESRR SLP176 T00001050

More Conditions Fewer Conditions

Pressure 30.05 in
Visibility 6.0 miles
Clouds Scattered Clouds 2000 ft
Mostly Cloudy 2600 ft
Overcast 8000 ft
Windchill 17 °F
Dew Point 23 °F
Humidity 77%
Rainfall 0.00 in
Snow Depth Not available.
UV 0.0 out of 12
Pollen .40 out of 12
Air Quality Not available.
Flu Activity Not available.
METAR KAOH 042153Z AUTO 31014G20KT 6SM HZ SCT020 BKN026 OVC080 00/M05 A3002 RMK AO2 PRESRR SLP176 T00001050

More Conditions Fewer Conditions

10-Day Weather Forecast

Almanac

Astronomy

Mar. 04, 2015 Rise Set
Actual Time
Civil Twilight
Nautical Twilight
Astronomical Twilight
Moon
Length of Visible Light
Length of Day
Tomorrow will be .
, % of the Moon is Illuminated

Today's Extremes

State Highs State Lows

Community

WunderPhotos

Upload Photos

1,802,596 photos uploaded!

WunderBlogs® & News

Nearby

Air Quality

  Air Quality AQ Index Pollutant
Not available.

Snow Depth

Station Depth Elevation

Earthquake Activity

City Distance Mag. Time & Date
Minimum magnitude displayed is 2.5.

Coastal Water Temperatures

Place Temperature

Nearby Weather Stations